Tiempo atmosférico en la estación meteorológica de Navalvillar De Pela, Badajoz (308 m.)



Fecha
DESCASC
Temp. máxima en grados centígrados (hora)
DESCASC
Temp. mínima en grados centígrados (hora)
DESCASC
Temp. media en grados centígrados
DESCASC
Racha de viento máxima en m/sg (hora)
DESCASC
Velocidad máxima media en intervalos de 10 minutos(hora)
DESCASC
Precipitaciones diarias en mm
DESCASC
Precipitaciones de 00:00 a 06:00 en mm
DESCASC
Precipitaciones de 06:00 a 12:00 en mm
DESCASC
Precipitaciones de 12:00 a 18:00 en mm
DESCASC
Precipitaciones de 18:00 a 24:00 en mm
DESCASC
22-04-2019 23 (18:00) 6.4 (07:30) 14.7 10.83 (19:10) 6.67 (19:10) 0 0 0 0 0
21-04-2019 19.9 (16:20) 8 (07:20) 13.9 9.72 (11:20) 6.67 (11:20) 0 0 0 0 0
20-04-2019 19.3 (14:40) 8.8 (02:30) 14 11.67 (20:00) 7.5 (20:00) 3 1 2 0 0
19-04-2019 18.7 (15:10) 9.4 (07:30) 14.1 13.89 (18:40) 9.44 (18:40) 1.2 0 0 0.4 0.8
18-04-2019 18.9 (14:30) 9.9 (00:00) 14.4 10.83 (15:30) 6.67 (15:30) 2.8 0.4 0 2.4 0
17-04-2019 21.9 (16:10) 10.6 (00:00) 16.3 11.67 (19:30) 7.22 (19:30) 0.2 0 0 0 0.2
16-04-2019 24.4 (18:30) 6 (00:00) 15.2 8.89 (17:10) 4.17 (15:50) 0 0 0 0 0
15-04-2019 23.1 (16:00) 12.2 (00:00) 17.7 11.39 (17:50) 7.5 (18:00) 0 0 0 0 0
14-04-2019 23.6 (17:40) 13 (00:00) 18.3 5.28 (01:20) 3.61 (01:20) 0 0 0 0 0
13-04-2019 23.5 (18:10) 5.7 (00:00) 14.6 8.06 (21:30) 4.17 (21:30) 0 0 0 0 0
12-04-2019 21.1 (18:30) 4.7 (00:00) 12.9 6.39 (16:50) 3.33 (18:00) 0 0 0 0 0
11-04-2019 19.9 (17:50) 3.4 (00:00) 11.6 7.5 (18:50) 4.17 (19:40) 0 0 0 0 0
10-04-2019 18.1 (18:00) 7.2 (00:00) 12.7 12.5 (17:20) 8.33 (17:20) 0 0 0 0 0
09-04-2019 16.1 (18:10) 8.5 (00:00) 12.3 14.17 (15:00) 8.33 (15:00) 2.2 0.2 1.6 0.4 0
08-04-2019 17.9 (16:40) 9.7 (00:00) 13.8 12.78 (16:50) 7.78 (16:50) 2.8 0.6 0.8 0 1.4
07-04-2019 13.8 (15:30) 7.9 (00:00) 10.9 11.11 (03:30) 7.22 (04:30) 3.2 0 0.2 0.2 2.8
06-04-2019 12.6 (14:00) 6.8 (00:00) 9.7 13.89 (15:30) 7.78 (17:00) 3.4 0 0.6 2.6 0.2
05-04-2019 12.4 (00:00) 6.8 (00:00) 9.6 15 (15:30) 8.33 (19:50) 9.8 3.6 4 1.8 0.4
04-04-2019 17.3 (17:30) 2.1 (00:00) 9.7 8.89 (23:59) 5.56 (23:59) 0 0 0 0 0
03-04-2019 18.7 (18:10) 8.5 (00:00) 13.6 11.94 (16:20) 6.94 (19:30) 0 0 0 0 0
02-04-2019 20.5 (17:40) 8.1 (00:00) 14.3 7.5 (23:00) 4.44 (23:00) 0 0 0 0 0
01-04-2019 18.7 (16:10) 10.7 (00:00) 14.7 10.83 (17:20) 7.78 (17:20) 7.6 0.2 0.4 7 0
31-03-2019 21.3 (15:20) 8.9 (00:00) 15.1 8.06 (20:50) 5.83 (20:50) 7.4 0 0 0 7.4
30-03-2019 22.6 (17:40) 6.1 (00:00) 14.4 11.39 (21:10) 6.94 (21:00) 0 0 0 0 0
29-03-2019 21.1 (16:20) 5 (00:00) 13.1 7.22 (10:40) 3.61 (11:10) 0 0 0 0 0
28-03-2019 22.1 (16:20) 4.8 (00:00) 13.5 11.11 (13:50) 6.67 (15:10) 0 0 0 0 0
27-03-2019 21.5 (16:50) 5.8 (00:00) 13.7 10.28 (15:20) 7.22 (16:20) 0 0 0 0 0
26-03-2019 25.4 (16:20) 8.6 (00:00) 17 12.5 (13:50) 8.61 (12:40) 0 0 0 0 0
25-03-2019 24.5 (15:40) 5.9 (00:00) 15.2 10.28 (14:30) 5.83 (12:00) 0 0 0 0 0

Gráficas

Temp. máximas Temp. mínimas Temp. medias Precipitaciones Rachas de viento máximas Velocidades máximas media en intervalos de 10 minutos

Datos horarios

Fecha y hora oficial Temperatura (ºC) Velocidad del viento (km/h) Dirección del viento Racha (km/h) Dirección de racha Precipitación (mm) Presión (hPa) Tendencia (hPa) Humedad (%)
2019-04-23 23:00:00 8.6 12 Oeste 34 Oeste 0 -- -- 75
2019-04-23 22:00:00 9.5 18 Oeste 37 Oeste 0 -- -- 71
2019-04-23 21:00:00 9.6 17 Oeste 33 Noroeste 0 -- -- 74
2019-04-23 20:00:00 10.6 18 Oeste 51 Oeste 0.2 -- -- 65
2019-04-23 19:00:00 10.9 34 Oeste 64 Oeste 0 -- -- 63
2019-04-23 18:00:00 13.2 24 Noroeste 42 Oeste 0.2 -- -- 58
2019-04-23 17:00:00 13.4 22 Noroeste 36 Oeste 0 -- -- 59
2019-04-23 16:00:00 9.9 23 Norte 64 Noroeste 0.2 -- -- 77
2019-04-23 15:00:00 11.9 26 Oeste 45 Oeste 0 -- -- 72
2019-04-23 14:00:00 11.7 26 Noroeste 49 Noroeste 0.2 -- -- 71
2019-04-23 13:00:00 11.5 21 Noroeste 36 Oeste 0 -- -- 71
2019-04-23 12:00:00 12.1 21 Noroeste 36 Oeste 0 -- -- 61
2019-04-23 11:00:00 11.2 22 Noroeste 41 Noroeste 0 -- -- 74
2019-04-23 10:00:00 9.2 18 Noroeste 38 Oeste 0 -- -- 84
2019-04-23 09:00:00 8.6 19 Noroeste 34 Oeste 0 -- -- 88
2019-04-23 08:00:00 9.2 15 Noroeste 31 Oeste 0 -- -- 92
2019-04-23 07:00:00 9.4 14 Noroeste 35 Noroeste 0.8 -- -- 94
2019-04-23 06:00:00 9.7 19 Noroeste 35 Noroeste 0.2 -- -- 92
2019-04-23 05:00:00 10.5 17 Noroeste 38 Noroeste 0.2 -- -- 89
2019-04-23 04:00:00 13.6 15 Oeste 28 Noroeste 0 -- -- 73
2019-04-23 03:00:00 14.1 15 Oeste 30 Noroeste 0 -- -- 72
2019-04-23 02:00:00 15.1 7 Oeste 20 Oeste 0 -- -- 67
2019-04-23 01:00:00 15.8 13 Oeste 27 Noroeste 0 -- -- 61
2019-04-23 00:00:00 16.7 16 Oeste 26 Noroeste 0 -- -- 52
2019-04-22 23:00:00 17.5 12 Oeste 22 Oeste 0 -- -- 50
2019-04-22 22:00:00 17.4 6 Oeste 33 Noroeste 0 -- -- 47
2019-04-22 21:00:00 18.9 15 Noroeste 36 Noroeste 0 -- -- 41
2019-04-22 20:00:00 20.1 21 Noroeste 39 Oeste 0 -- -- 38
2019-04-22 19:00:00 21.3 23 Noroeste 37 Oeste 0 -- -- 38
2019-04-22 18:00:00 23 20 Noroeste 38 Noroeste 0 -- -- 32
2019-04-22 17:00:00 22.8 15 Noroeste 31 Noroeste 0 -- -- 36
2019-04-22 16:00:00 21.9 14 Noroeste 31 Noroeste 0 -- -- 42
2019-04-22 15:00:00 21.2 10 Noroeste 24 Noroeste 0 -- -- 45
2019-04-22 14:00:00 19.9 7 Oeste 19 Oeste 0 -- -- 48
2019-04-22 13:00:00 18.3 9 Noroeste 19 Noroeste 0 -- -- 52
2019-04-22 12:00:00 17.3 4 Sudoeste 13 Este 0 -- -- 59
2019-04-22 11:00:00 15 2 Nordeste 6 Noroeste 0 -- -- 70
2019-04-22 10:00:00 12.1 2 Este 6 Este 0 -- -- 89
2019-04-22 09:00:00 9.3 0 Calma 9 Sur 0 -- -- 95
2019-04-22 08:00:00 6.5 3 Sur 5 Sur 0 -- -- 93
2019-04-22 07:00:00 7.1 0 Calma 4 Sur 0 -- -- 92
2019-04-22 06:00:00 8.1 0 Calma 9 Este 0 -- -- 93
2019-04-22 05:00:00 9.3 2 Sudoeste 9 Sur 0 -- -- 88
2019-04-22 04:00:00 9.2 7 Sur 9 Sur 0 -- -- 88
2019-04-22 03:00:00 10.6 5 Sur 7 Sur 0 -- -- 84
2019-04-22 02:00:00 11.9 4 Sur 6 Sur 0 -- -- 81
2019-04-22 01:00:00 12.6 4 Sur 6 Sur 0 -- -- 77
2019-04-22 00:00:00 12.9 6 Sur 7 Sur 0 -- -- 77
2019-04-21 23:00:00 13.8 4 Sur 9 Sudeste 0 -- -- 69
2019-04-21 22:00:00 14.3 4 Sur 6 Sur 0 -- -- 68
2019-04-21 21:00:00 15.3 4 Sur 8 Sudeste 0 -- -- 63
2019-04-21 20:00:00 16.3 6 Sur 18 Sudeste 0 -- -- 54
2019-04-21 19:00:00 17.1 12 Sudeste 20 Sur 0 -- -- 52
2019-04-21 18:00:00 17.3 12 Sur 23 Nordeste 0 -- -- 52
2019-04-21 17:00:00 18.6 18 Este 28 Este 0 -- -- 44
2019-04-21 16:00:00 18.7 15 Este 30 Este 0 -- -- 45
2019-04-21 15:00:00 17.8 15 Este 30 Este 0 -- -- 51
2019-04-21 14:00:00 17.9 18 Este 31 Sudeste 0 -- -- 50
2019-04-21 13:00:00 17.2 15 Este 33 Este 0 -- -- 53
2019-04-21 12:00:00 16.5 19 Este 35 Este 0 -- -- 54
2019-04-21 11:00:00 14.5 12 Este 20 Este 0 -- -- 64
2019-04-21 10:00:00 12.3 7 Este 11 Este 0 -- -- 71
2019-04-21 09:00:00 10.3 7 Nordeste 14 Este 0 -- -- 80
2019-04-21 08:00:00 9.3 6 Sudeste 15 Este 0 -- -- 80
2019-04-21 07:00:00 8.2 6 Sudeste 10 Este 0 -- -- 81
2019-04-21 06:00:00 9.4 4 Sudeste 13 Este 0 -- -- 75
2019-04-21 05:00:00 8.5 5 Sur 15 Sudeste 0 -- -- 81
2019-04-21 04:00:00 10.3 6 Sudeste 26 Este 0 -- -- 75
2019-04-21 03:00:00 10.8 15 Este 24 Este 0 -- -- 75
2019-04-21 02:00:00 11.6 17 Este 24 Este 0 -- -- 77
2019-04-21 01:00:00 11.9 2 Oeste 16 Nordeste 0 -- -- 84
2019-04-21 00:00:00 12.8 4 Nordeste 36 Sudeste 0 -- -- 75
2019-04-20 23:00:00 14.3 22 Sudeste 40 Sudeste 0 -- -- 58
2019-04-20 22:00:00 13.5 15 Sudeste 40 Sudeste 0 -- -- 71
2019-04-20 21:00:00 14.5 21 Sudeste 39 Sudeste 0 -- -- 65
2019-04-20 20:00:00 15.2 27 Sudeste 42 Sudeste 0 -- -- 63
2019-04-20 19:00:00 16.7 18 Sudeste 34 Sudeste 0 -- -- 60
2019-04-20 18:00:00 17.4 17 Sur 26 Sudeste 0 -- -- 61
2019-04-20 17:00:00 17.8 12 Sur 31 Sudeste 0 -- -- 61
2019-04-20 16:00:00 18.9 16 Sudeste 37 Este 0 -- -- 54
2019-04-20 15:00:00 19.2 17 Sudeste 40 Sudeste 0 -- -- 52
2019-04-20 14:00:00 16.9 12 Sudeste 29 Sudeste 0 -- -- 64
2019-04-20 13:00:00 15.9 13 Este 24 Este 0 -- -- 69
2019-04-20 12:00:00 15 14 Este 21 Este 0 -- -- 74
2019-04-20 11:00:00 14.4 2 Sudeste 6 Sur 0 -- -- 78
2019-04-20 10:00:00 12.8 3 Sur 8 Sudeste 0.2 -- -- 83
2019-04-20 09:00:00 11.1 5 Sur 10 Este 0 -- -- 95
2019-04-20 08:00:00 10.7 2 Sur 9 Este 0.6 -- -- 95
2019-04-20 07:00:00 10.4 3 Sudeste 8 Sudeste 1.2 -- -- 95
2019-04-20 06:00:00 10.4 7 Este 17 Este 1 -- -- 92
2019-04-20 05:00:00 9.6 2 Sur 4 Sur 0 -- -- 92
2019-04-20 04:00:00 9.2 2 Sudeste 4 Este 0 -- -- 92
2019-04-20 03:00:00 8.8 4 Sudeste 5 Sudeste 0 -- -- 92
2019-04-20 02:00:00 8.9 3 Sudeste 9 Sudeste 0 -- -- 91
2019-04-20 01:00:00 9.9 7 Sudeste 17 Sudeste 0 -- -- 86
2019-04-20 00:00:00 10.3 10 Sudeste 15 Sudeste 0 -- -- 86
2019-04-19 23:00:00 11.3 7 Este 14 Sur 0 -- -- 88
2019-04-19 22:00:00 11.7 8 Sudeste 14 Sudeste 0 -- -- 89
2019-04-19 21:00:00 12 8 Sudeste 19 Sudeste 0 -- -- 90
2019-04-19 20:00:00 12.2 14 Sudeste 37 Sudeste 0.2 -- -- 90
2019-04-19 19:00:00 12 29 Sudeste 50 Sudeste 0.6 -- -- 89
2019-04-19 18:00:00 15.3 21 Este 48 Este 0 -- -- 72
2019-04-19 17:00:00 17.3 18 Este 24 Este 0 -- -- 60
2019-04-19 16:00:00 15.3 17 Este 24 Este 0.4 -- -- 70
2019-04-19 15:00:00 18.5 9 Este 17 Este 0 -- -- 54
2019-04-19 14:00:00 17 6 Sur 18 Sur 0 -- -- 61
2019-04-19 13:00:00 15.3 8 Sur 18 Sur 0 -- -- 66
2019-04-19 12:00:00 15 7 Sudeste 15 Sur 0 -- -- 65
2019-04-19 11:00:00 13.7 6 Sur 14 Sudoeste 0 -- -- 74
2019-04-19 10:00:00 11.9 3 Este 5 Este 0 -- -- 90
2019-04-19 09:00:00 10.2 0 Calma 5 Sudeste 0 -- -- 96
2019-04-19 08:00:00 9.6 2 Este 6 Norte 0 -- -- 95
2019-04-19 07:00:00 9.7 3 Sudoeste 5 Sudoeste 0 -- -- 93
2019-04-19 06:00:00 10.3 4 Sudeste 8 Sur 0 -- -- 92
2019-04-19 05:00:00 10.6 4 Sudoeste 6 Oeste 0 -- -- 90
2019-04-19 04:00:00 10.4 4 Oeste 8 Noroeste 0 -- -- 91
2019-04-19 03:00:00 10.5 3 Noroeste 12 Noroeste 0 -- -- 93
2019-04-19 02:00:00 10.5 6 Noroeste 20 Noroeste 0 -- -- 92
2019-04-19 01:00:00 10.7 14 Noroeste 26 Noroeste 0 -- -- 91
2019-04-19 00:00:00 10.9 13 Noroeste 34 Oeste 0 -- -- 85
2019-04-18 23:00:00 12.1 22 Oeste 37 Oeste 0 -- -- 82
2019-04-18 22:00:00 11.1 5 Sur 6 Sur 0 -- -- 88
2019-04-18 21:00:00 12.7 4 Sur 6 Sudeste 0 -- -- 83
2019-04-18 20:00:00 14 3 Oeste 5 Oeste 0 -- -- 73
2019-04-18 19:00:00 14.1 0 Calma 4 Oeste 0 -- -- 72
2019-04-18 18:00:00 13.5 0 Calma 6 Sudoeste 0.4 -- -- 79
2019-04-18 17:00:00 12.7 5 Oeste 23 Noroeste 0.2 -- -- 80
2019-04-18 16:00:00 13.5 15 Noroeste 39 Noroeste 1.8 -- -- 79
2019-04-18 15:00:00 17.9 9 Nordeste 19 Nordeste 0 -- -- 55
2019-04-18 14:00:00 18.1 5 Norte 14 Este 0 -- -- 51
2019-04-18 13:00:00 15.8 5 Este 11 Norte 0 -- -- 60
2019-04-18 12:00:00 15.3 3 Nordeste 9 Este 0 -- -- 68
2019-04-18 11:00:00 13.8 2 Nordeste 6 Norte 0 -- -- 76
2019-04-18 10:00:00 12.2 0 Calma 4 Sur 0 -- -- 85
2019-04-18 09:00:00 10.4 2 Sur 6 Sur 0 -- -- 94
2019-04-18 08:00:00 10.1 0 Calma 6 Sur 0 -- -- 90
2019-04-18 07:00:00 10.7 5 Sudoeste 6 Sur 0 -- -- 88
2019-04-18 06:00:00 10.8 3 Sudoeste 5 Oeste 0 -- -- 85
2019-04-18 05:00:00 11.6 3 Noroeste 6 Noroeste 0 -- -- 80
2019-04-18 04:00:00 12.7 8 Oeste 24 Oeste 0 -- -- 74
2019-04-18 03:00:00 12.7 11 Oeste 19 Oeste 0 -- -- 74
2019-04-18 02:00:00 11.6 3 Este 15 Sudoeste 0 -- -- 84
2019-04-18 01:00:00 12.9 11 Oeste 26 Oeste 0.4 -- -- 74
2019-04-18 00:00:00 13 9 Oeste 19 Sudoeste 0.2 -- -- 76
2019-04-17 23:00:00 14.7 9 Oeste 24 Sudoeste 0 -- -- 63
2019-04-17 22:00:00 14.3 7 Sudoeste 16 Noroeste 0 -- -- 67
2019-04-17 21:00:00 13.9 9 Noroeste 32 Oeste 0 -- -- 81
2019-04-17 20:00:00 14.5 21 Noroeste 42 Noroeste 0 -- -- 76
2019-04-17 19:00:00 17.5 23 Noroeste 37 Noroeste 0 -- -- 64
2019-04-17 18:00:00 20.5 10 Oeste 27 Oeste 0 -- -- 48
2019-04-17 17:00:00 21 14 Oeste 31 Oeste 0 -- -- 45
2019-04-17 16:00:00 21.8 13 Sudoeste 30 Sudoeste 0 -- -- 43
2019-04-17 15:00:00 21.5 15 Sudoeste 25 Sur 0 -- -- 43
2019-04-17 14:00:00 20.2 4 Nordeste 11 Este 0 -- -- 45
2019-04-17 13:00:00 19.2 8 Este 13 Este 0 -- -- 49
2019-04-17 12:00:00 17.7 3 Nordeste 7 Norte 0 -- -- 55
2019-04-17 11:00:00 15.8 2 Este 6 Nordeste 0 -- -- 66
2019-04-17 10:00:00 15.2 4 Sudeste 8 Sudeste 0 -- -- 63
2019-04-17 09:00:00 12.3 4 Sur 10 Sudeste 0 -- -- 70
2019-04-17 08:00:00 10.7 3 Nordeste 11 Sur 0 -- -- 75
2019-04-17 07:00:00 11.3 0 Calma 11 Este 0 -- -- 71
2019-04-17 06:00:00 12.2 2 Este 10 Sudeste 0 -- -- 68
2019-04-17 05:00:00 12.3 3 Norte 10 Sudoeste 0 -- -- 74
2019-04-17 04:00:00 12 6 Sudeste 15 Sudeste 0 -- -- 75
2019-04-17 03:00:00 14.4 10 Sudeste 14 Sur 0 -- -- 64
2019-04-17 02:00:00 14 10 Sur 17 Sur 0 -- -- 64
2019-04-17 01:00:00 15.6 11 Sudoeste 17 Sur 0 -- -- 57
2019-04-17 00:00:00 17.8 13 Sudoeste 19 Sudoeste 0 -- -- 47
2019-04-16 23:00:00 17.8 7 Sudoeste 19 Sudoeste 0 -- -- 43
2019-04-16 22:00:00 20.7 12 Sudoeste 24 Sudoeste 0 -- -- 33
2019-04-16 21:00:00 20 5 Sudoeste 15 Sudeste 0 -- -- 41
2019-04-16 20:00:00 23.3 10 Sudeste 22 Sudeste 0 -- -- 36
2019-04-16 19:00:00 24.3 13 Sudeste 24 Sudeste 0 -- -- 34
2019-04-16 18:00:00 24.2 10 Sudeste 32 Sudeste 0 -- -- 34
2019-04-16 17:00:00 23.9 8 Sur 22 Sudeste 0 -- -- 33
2019-04-16 16:00:00 22.9 12 Sudeste 30 Sudeste 0 -- -- 34
2019-04-16 15:00:00 22.1 14 Sur 27 Sur 0 -- -- 34
2019-04-16 14:00:00 20.8 10 Sur 22 Sur 0 -- -- 39
2019-04-16 13:00:00 19.6 9 Sur 19 Sur 0 -- -- 48
2019-04-16 12:00:00 18.2 10 Sudeste 23 Sur 0 -- -- 55
2019-04-16 11:00:00 16.3 9 Sur 14 Sur 0 -- -- 61
2019-04-16 10:00:00 13.2 5 Este 9 Nordeste 0 -- -- 82
2019-04-16 09:00:00 9.1 3 Este 8 Sur 0 -- -- 90
2019-04-16 08:00:00 6 4 Sur 6 Sur 0 -- -- 92
2019-04-16 07:00:00 6.7 4 Sudeste 6 Sudeste 0 -- -- 93
2019-04-16 06:00:00 6.8 5 Este 12 Este 0 -- -- 90
2019-04-16 05:00:00 9 4 Este 13 Oeste 0 -- -- 80
2019-04-16 04:00:00 11.9 9 Oeste 14 Oeste 0 -- -- 72
2019-04-16 03:00:00 12.2 8 Oeste 14 Oeste 0 -- -- 72
2019-04-16 02:00:00 12.6 8 Oeste 14 Noroeste 0 -- -- 70
2019-04-16 01:00:00 12.8 4 Oeste 12 Noroeste 0 -- -- 70
2019-04-16 00:00:00 13.1 6 Oeste 8 Oeste 0 -- -- 72
2019-04-15 23:00:00 14.4 7 Oeste 13 Oeste 0 -- -- 65
2019-04-15 22:00:00 14.5 4 Oeste 8 Norte 0 -- -- 67
2019-04-15 21:00:00 16.8 6 Norte 25 Noroeste 0 -- -- 64
2019-04-15 20:00:00 18.5 16 Noroeste 32 Norte 0 -- -- 57
2019-04-15 19:00:00 18.2 18 Noroeste 40 Norte 0 -- -- 61
2019-04-15 18:00:00 18.9 27 Noroeste 41 Noroeste 0 -- -- 60
2019-04-15 17:00:00 22.5 22 Noroeste 41 Noroeste 0 -- -- 37
2019-04-15 16:00:00 23.1 22 Noroeste 40 Noroeste 0 -- -- 39
2019-04-15 15:00:00 22.7 23 Noroeste 38 Noroeste 0 -- -- 48
2019-04-15 14:00:00 22.4 18 Noroeste 33 Oeste 0 -- -- 50
2019-04-15 13:00:00 21.4 19 Noroeste 34 Noroeste 0 -- -- 56
2019-04-15 12:00:00 21.5 16 Oeste 31 Oeste 0 -- -- 58
2019-04-15 11:00:00 19.8 10 Sur 20 Sur 0 -- -- 63
2019-04-15 10:00:00 15.8 7 Este 15 Sur 0 -- -- 81
2019-04-15 09:00:00 15.1 12 Sur 18 Sur 0 -- -- 83
2019-04-15 08:00:00 13.3 5 Nordeste 11 Sudeste 0 -- -- 88
2019-04-15 07:00:00 12.2 9 Sudeste 14 Sudeste 0 -- -- 88
2019-04-15 06:00:00 12.6 8 Sudeste 12 Sudeste 0 -- -- 88
2019-04-15 05:00:00 13.9 9 Sudeste 13 Sudeste 0 -- -- 83
2019-04-15 04:00:00 13.1 4 Este 14 Este 0 -- -- 89
2019-04-15 03:00:00 13.9 10 Este 14 Este 0 -- -- 86
2019-04-15 02:00:00 14.9 7 Este 14 Sur 0 -- -- 83
2019-04-15 01:00:00 16.1 9 Sur 13 Sur 0 -- -- 75
2019-04-15 00:00:00 16.2 9 Sur 12 Sudoeste 0 -- -- 76
2019-04-14 23:00:00 16.5 9 Sudoeste 12 Sudoeste 0 -- -- 74
2019-04-14 22:00:00 16.9 6 Sudoeste 10 Sur 0 -- -- 74
2019-04-14 21:00:00 19.8 6 Sur 8 Sur 0 -- -- 65
2019-04-14 20:00:00 21.5 5 Sur 14 Sur 0 -- -- 57
2019-04-14 19:00:00 22.8 5 Sudoeste 16 Noroeste 0 -- -- 53
2019-04-14 18:00:00 23.5 4 Nordeste 11 Nordeste 0 -- -- 50
2019-04-14 17:00:00 22.7 4 Este 11 Nordeste 0 -- -- 54
2019-04-14 16:00:00 21.1 5 Norte 15 Noroeste 0 -- -- 60
2019-04-14 15:00:00 19 5 Nordeste 13 Noroeste 0 -- -- 69
2019-04-14 14:00:00 17.5 11 Noroeste 18 Noroeste 0 -- -- 73
2019-04-14 13:00:00 16.2 8 Noroeste 12 Noroeste 0 -- -- 80
2019-04-14 12:00:00 15.1 6 Noroeste 13 Noroeste 0 -- -- 84
2019-04-14 11:00:00 14.6 7 Oeste 14 Oeste 0 -- -- 88
2019-04-14 10:00:00 14 7 Oeste 14 Oeste 0 -- -- 90
2019-04-14 09:00:00 13.9 6 Noroeste 12 Noroeste 0 -- -- 90
2019-04-14 08:00:00 13.8 3 Noroeste 12 Oeste 0 -- -- 89
2019-04-14 07:00:00 13.5 6 Oeste 15 Oeste 0 -- -- 90
2019-04-14 06:00:00 13 7 Oeste 18 Noroeste 0 -- -- 90
2019-04-14 05:00:00 13.4 12 Noroeste 18 Oeste 0 -- -- 88
2019-04-14 04:00:00 13.9 10 Oeste 17 Oeste 0 -- -- 83
2019-04-14 03:00:00 14.5 11 Oeste 18 Oeste 0 -- -- 76
2019-04-14 02:00:00 15.1 9 Oeste 19 Noroeste 0 -- -- 66
2019-04-14 01:00:00 16 13 Noroeste 18 Noroeste 0 -- -- 56
2019-04-14 00:00:00 16.7 12 Oeste 18 Noroeste 0 -- -- 51
2019-04-13 23:00:00 17 11 Oeste 17 Oeste 0 -- -- 48
2019-04-13 22:00:00 18 12 Noroeste 29 Oeste 0 -- -- 43
2019-04-13 21:00:00 19.3 8 Oeste 18 Noroeste 0 -- -- 38
2019-04-13 20:00:00 22.1 13 Noroeste 28 Noroeste 0 -- -- 33
2019-04-13 19:00:00 23.2 13 Oeste 26 Noroeste 0 -- -- 32
2019-04-13 18:00:00 23.4 9 Noroeste 26 Oeste 0 -- -- 30
2019-04-13 17:00:00 23 9 Oeste 24 Norte 0 -- -- 31
2019-04-13 16:00:00 22.3 6 Noroeste 19 Noroeste 0 -- -- 36
2019-04-13 15:00:00 21.5 7 Oeste 26 Noroeste 0 -- -- 38
2019-04-13 14:00:00 20.6 12 Oeste 24 Noroeste 0 -- -- 44
2019-04-13 13:00:00 19 8 Noroeste 14 Noroeste 0 -- -- 52
2019-04-13 12:00:00 16.6 4 Noroeste 9 Oeste 0 -- -- 65
2019-04-13 11:00:00 14.1 3 Este 8 Este 0 -- -- 69
2019-04-13 10:00:00 11.4 3 Este 6 Sur 0 -- -- 85
2019-04-13 09:00:00 8.4 3 Sur 5 Sur 0 -- -- 92
2019-04-13 08:00:00 6.4 2 Sur 5 Este 0 -- -- 92
2019-04-13 07:00:00 6 3 Este 7 Este 0 -- -- 91
2019-04-13 06:00:00 5.8 2 Noroeste 4 Oeste 0 -- -- 90
2019-04-13 05:00:00 6 3 Este 4 Nordeste 0 -- -- 86
2019-04-13 04:00:00 7.2 0 Calma 5 Sudoeste 0 -- -- 79
2019-04-13 03:00:00 7.4 3 Sudoeste 4 Sur 0 -- -- 77
2019-04-13 02:00:00 8.8 0 Calma 4 Sur 0 -- -- 71
2019-04-13 01:00:00 10 3 Este 10 Nordeste 0 -- -- 65
2019-04-13 00:00:00 11.7 0 Calma 10 Noroeste 0 -- -- 57
2019-04-12 23:00:00 14.6 8 Oeste 12 Oeste 0 -- -- 45
2019-04-12 22:00:00 15.1 7 Oeste 10 Oeste 0 -- -- 45
2019-04-12 21:00:00 17.8 7 Noroeste 16 Norte 0 -- -- 38
2019-04-12 20:00:00 20.2 10 Norte 20 Norte 0 -- -- 32
2019-04-12 19:00:00 20.9 11 Norte 21 Norte 0 -- -- 32
2019-04-12 18:00:00 21 12 Norte 22 Norte 0 -- -- 36
2019-04-12 17:00:00 20.4 7 Norte 23 Nordeste 0 -- -- 32
2019-04-12 16:00:00 20.1 6 Norte 18 Nordeste 0 -- -- 33
2019-04-12 15:00:00 19.2 8 Noroeste 22 Noroeste 0 -- -- 36
2019-04-12 14:00:00 18.9 6 Noroeste 15 Noroeste 0 -- -- 36
2019-04-12 13:00:00 18 4 Sudeste 15 Nordeste 0 -- -- 39
2019-04-12 12:00:00 16.4 6 Este 10 Nordeste 0 -- -- 48
2019-04-12 11:00:00 13.9 5 Nordeste 9 Nordeste 0 -- -- 55
2019-04-12 10:00:00 11.6 3 Nordeste 5 Nordeste 0 -- -- 68
2019-04-12 09:00:00 8 0 Calma 4 Nordeste 0 -- -- 83
2019-04-12 08:00:00 4.8 2 Sur 5 Este 0 -- -- 88
2019-04-12 07:00:00 6 3 Norte 6 Noroeste 0 -- -- 82
2019-04-12 06:00:00 5.5 2 Sudeste 5 Sudeste 0 -- -- 84
2019-04-12 05:00:00 6.6 2 Sudeste 11 Sur 0 -- -- 79
2019-04-12 04:00:00 7.3 10 Sur 15 Sur 0 -- -- 76
2019-04-12 03:00:00 8 5 Sur 10 Sur 0 -- -- 71
2019-04-12 02:00:00 7.7 6 Sur 8 Sur 0 -- -- 76
2019-04-12 01:00:00 9 3 Norte 10 Este 0 -- -- 71
2019-04-12 00:00:00 10.7 0 Calma 9 Oeste 0 -- -- 63
2019-04-11 23:00:00 12 4 Oeste 15 Noroeste 0 -- -- 58
2019-04-11 22:00:00 13.8 7 Noroeste 14 Noroeste 0 -- -- 49
2019-04-11 21:00:00 16.4 9 Noroeste 21 Noroeste 0 -- -- 42
2019-04-11 20:00:00 18.9 10 Noroeste 24 Noroeste 0 -- -- 33
2019-04-11 19:00:00 19.5 12 Noroeste 27 Noroeste 0 -- -- 33
2019-04-11 18:00:00 19.7 10 Norte 23 Noroeste 0 -- -- 36
2019-04-11 17:00:00 19.5 14 Noroeste 25 Noroeste 0 -- -- 36
2019-04-11 16:00:00 18.8 12 Noroeste 21 Norte 0 -- -- 41
2019-04-11 15:00:00 17.4 7 Oeste 21 Norte 0 -- -- 43
2019-04-11 14:00:00 16.9 9 Norte 17 Norte 0 -- -- 47
2019-04-11 13:00:00 15.6 3 Norte 10 Nordeste 0 -- -- 53
2019-04-11 12:00:00 13.7 4 Nordeste 9 Norte 0 -- -- 62
2019-04-11 11:00:00 11.2 5 Nordeste 8 Nordeste 0 -- -- 76
2019-04-11 10:00:00 9 4 Norte 7 Nordeste 0 -- -- 83
2019-04-11 09:00:00 7.1 2 Sur 8 Sur 0 -- -- 95
2019-04-11 08:00:00 3.4 0 Calma 4 Noroeste 0 -- -- 94
2019-04-11 07:00:00 4.4 0 Calma 3 Sur 0 -- -- 94
2019-04-11 06:00:00 4.6 3 Sudoeste 6 Sudoeste 0 -- -- 93
2019-04-11 05:00:00 4.7 0 Calma 7 Sudeste 0 -- -- 90
2019-04-11 04:00:00 6.4 0 Calma 6 Sur 0 -- -- 85
2019-04-11 03:00:00 8.9 5 Noroeste 18 Oeste 0 -- -- 74
2019-04-11 02:00:00 9.4 9 Noroeste 14 Oeste 0 -- -- 72
2019-04-11 01:00:00 9.7 9 Noroeste 17 Noroeste 0 -- -- 72
2019-04-11 00:00:00 10.7 11 Noroeste 15 Noroeste 0 -- -- 68
2019-04-10 23:00:00 11.4 7 Norte 15 Noroeste 0 -- -- 71
2019-04-10 22:00:00 13.5 14 Noroeste 26 Noroeste 0 -- -- 61
2019-04-10 21:00:00 15 19 Noroeste 34 Noroeste 0 -- -- 54
2019-04-10 20:00:00 16.8 19 Noroeste 38 Noroeste 0 -- -- 47
2019-04-10 19:00:00 16.7 16 Norte 39 Norte 0 -- -- 47
2019-04-10 18:00:00 18.1 20 Norte 45 Noroeste 0 -- -- 44
2019-04-10 17:00:00 17.4 24 Noroeste 41 Norte 0 -- -- 45
2019-04-10 16:00:00 16.9 18 Noroeste 44 Noroeste 0 -- -- 48
2019-04-10 15:00:00 16.6 24 Noroeste 39 Noroeste 0 -- -- 50
2019-04-10 14:00:00 16.1 22 Norte 38 Norte 0 -- -- 52
2019-04-10 13:00:00 15.1 23 Norte 38 Noroeste 0 -- -- 57
2019-04-10 12:00:00 12 13 Noroeste 27 Noroeste 0 -- -- 73
2019-04-10 11:00:00 10.8 16 Noroeste 30 Noroeste 0 -- -- 80
2019-04-10 10:00:00 9.4 16 Noroeste 25 Noroeste 0 -- -- 87
2019-04-10 09:00:00 7.7 12 Noroeste 23 Noroeste 0 -- -- 95
2019-04-10 08:00:00 7.2 15 Noroeste 29 Noroeste 0 -- -- 95
2019-04-10 07:00:00 7.3 18 Noroeste 29 Oeste 0 -- -- 95
2019-04-10 06:00:00 7.5 18 Oeste 30 Noroeste 0 -- -- 94
2019-04-10 05:00:00 7.6 15 Noroeste 29 Oeste 0 -- -- 91
2019-04-10 04:00:00 7.8 15 Noroeste 26 Oeste 0 -- -- 88
2019-04-10 03:00:00 8.3 12 Oeste 19 Noroeste 0 -- -- 85
2019-04-10 02:00:00 9.1 15 Noroeste 27 Oeste 0 -- -- 80
2019-04-10 01:00:00 9.6 13 Noroeste 22 Oeste 0 -- -- 79
2019-04-10 00:00:00 10.4 14 Noroeste 30 Noroeste 0 -- -- 76
2019-04-09 23:00:00 10.6 13 Oeste 28 Noroeste 0 -- -- 74
2019-04-09 22:00:00 12 17 Noroeste 43 Noroeste 0 -- -- 70
2019-04-09 21:00:00 13.4 15 Noroeste 40 Noroeste 0 -- -- 60
2019-04-09 20:00:00 15.3 22 Noroeste 39 Noroeste 0 -- -- 54
2019-04-09 19:00:00 15.2 21 Noroeste 45 Noroeste 0 -- -- 59
2019-04-09 18:00:00 16 22 Noroeste 45 Noroeste 0 -- -- 57
2019-04-09 17:00:00 14.7 26 Noroeste 48 Noroeste 0 -- -- 70
2019-04-09 16:00:00 14.3 24 Noroeste 46 Oeste 0 -- -- 71
2019-04-09 15:00:00 14.2 30 Noroeste 51 Noroeste 0.4 -- -- 66
2019-04-09 14:00:00 13 22 Noroeste 44 Noroeste 0 -- -- 70
2019-04-09 13:00:00 13.1 28 Noroeste 41 Noroeste 0 -- -- 70
2019-04-09 12:00:00 11.8 23 Noroeste 47 Noroeste 0 -- -- 80
2019-04-09 11:00:00 10.3 18 Noroeste 33 Oeste 1 -- -- 92
2019-04-09 10:00:00 9.7 9 Noroeste 16 Noroeste 0.2 -- -- 94
2019-04-09 09:00:00 8.9 5 Noroeste 19 Noroeste 0 -- -- 94
2019-04-09 08:00:00 8.5 9 Noroeste 15 Noroeste 0.4 -- -- 94
2019-04-09 07:00:00 8.7 7 Norte 15 Noroeste 0 -- -- 91
2019-04-09 06:00:00 8.6 7 Noroeste 30 Noroeste 0 -- -- 90
2019-04-09 05:00:00 8.8 13 Oeste 27 Noroeste 0 -- -- 88
2019-04-09 04:00:00 8.7 14 Oeste 26 Oeste 0 -- -- 88
2019-04-09 03:00:00 9 14 Oeste 25 Oeste 0 -- -- 88
2019-04-09 02:00:00 9.3 15 Oeste 25 Oeste 0 -- -- 86
2019-04-09 01:00:00 9.6 13 Oeste 24 Oeste 0.2 -- -- 84
2019-04-09 00:00:00 9.7 13 Oeste 22 Oeste 0 -- -- 84
2019-04-08 23:00:00 10.3 6 Noroeste 17 Oeste 0.2 -- -- 88
2019-04-08 22:00:00 10.5 12 Noroeste 27 Noroeste 1.2 -- -- 87
2019-04-08 21:00:00 12.4 5 Oeste 30 Norte 0 -- -- 72
2019-04-08 20:00:00 15.2 24 Noroeste 40 Noroeste 0 -- -- 60
2019-04-08 19:00:00 16.4 19 Noroeste 35 Noroeste 0 -- -- 45
2019-04-08 18:00:00 17.7 21 Noroeste 40 Noroeste 0 -- -- 40
2019-04-08 17:00:00 17.7 25 Noroeste 46 Noroeste 0 -- -- 45
2019-04-08 16:00:00 17.3 24 Noroeste 43 Noroeste 0 -- -- 51
2019-04-08 15:00:00 16.6 27 Noroeste 41 Noroeste 0 -- -- 59
2019-04-08 14:00:00 15.9 18 Noroeste 30 Noroeste 0 -- -- 63
2019-04-08 13:00:00 15.2 16 Noroeste 28 Noroeste 0 -- -- 67
2019-04-08 12:00:00 15 16 Noroeste 26 Noroeste 0 -- -- 72
2019-04-08 11:00:00 13.1 15 Noroeste 30 Noroeste 0 -- -- 86
2019-04-08 10:00:00 12.6 18 Oeste 30 Oeste 0 -- -- 87
2019-04-08 09:00:00 11.8 13 Oeste 38 Oeste 0 -- -- 91
2019-04-08 08:00:00 11.8 19 Oeste 41 Oeste 0.6 -- -- 89
2019-04-08 07:00:00 11.6 10 Oeste 20 Oeste 0.2 -- -- 89
2019-04-08 06:00:00 11.7 7 Oeste 15 Oeste 0.2 -- -- 89
2019-04-08 05:00:00 11.6 7 Noroeste 17 Noroeste 0.2 -- -- 93
2019-04-08 04:00:00 12 10 Oeste 31 Oeste 0 -- -- 90
2019-04-08 03:00:00 12.2 14 Oeste 30 Oeste 0 -- -- 90
2019-04-08 02:00:00 12.4 9 Noroeste 30 Noroeste 0.2 -- -- 91
2019-04-08 01:00:00 12.6 11 Oeste 21 Oeste 0 -- -- 92
2019-04-08 00:00:00 12.1 11 Noroeste 18 Oeste 0 -- -- 95
2019-04-07 23:00:00 12.1 8 Noroeste 17 Noroeste 0 -- -- 96
2019-04-07 22:00:00 11.4 0 Calma 9 Norte 1.4 -- -- 96
2019-04-07 21:00:00 11.5 3 Este 4 Este 1.2 -- -- 94
2019-04-07 20:00:00 11.9 2 Este 12 Sudoeste 0.2 -- -- 91
2019-04-07 19:00:00 12.1 8 Sudoeste 19 Oeste 0 -- -- 89
2019-04-07 18:00:00 12.7 13 Sudoeste 20 Sudoeste 0 -- -- 81
2019-04-07 17:00:00 12.6 11 Oeste 23 Oeste 0 -- -- 77
2019-04-07 16:00:00 13.3 14 Noroeste 27 Oeste 0 -- -- 68
2019-04-07 15:00:00 13.4 12 Noroeste 30 Oeste 0.2 -- -- 69
2019-04-07 14:00:00 13.1 17 Noroeste 30 Noroeste 0 -- -- 66
2019-04-07 13:00:00 12.8 15 Oeste 30 Oeste 0 -- -- 70
2019-04-07 12:00:00 11.7 14 Noroeste 27 Noroeste 0 -- -- 74
2019-04-07 11:00:00 10.2 15 Noroeste 28 Noroeste 0 -- -- 85
2019-04-07 10:00:00 9.1 15 Noroeste 27 Noroeste 0.2 -- -- 90
2019-04-07 09:00:00 8.4 14 Oeste 24 Oeste 0 -- -- 91
2019-04-07 08:00:00 8 15 Oeste 28 Oeste 0 -- -- 91
2019-04-07 07:00:00 8.2 19 Oeste 35 Oeste 0 -- -- 90
2019-04-07 06:00:00 8.1 19 Noroeste 35 Noroeste 0 -- -- 91
2019-04-07 05:00:00 8 19 Noroeste 40 Noroeste 0 -- -- 91
2019-04-07 04:00:00 8.3 24 Noroeste 40 Noroeste 0 -- -- 90
2019-04-07 03:00:00 8.4 20 Noroeste 35 Noroeste 0 -- -- 89
2019-04-07 02:00:00 8.4 14 Oeste 23 Oeste 0 -- -- 85
2019-04-07 01:00:00 8.6 12 Noroeste 24 Noroeste 0 -- -- 80
2019-04-07 00:00:00 8.7 19 Noroeste 33 Oeste 0 -- -- 79
2019-04-06 23:00:00 8.6 17 Noroeste 24 Noroeste 0 -- -- 82
2019-04-06 22:00:00 8.9 14 Oeste 29 Noroeste 0 -- -- 82
2019-04-06 21:00:00 9.6 13 Noroeste 29 Noroeste 0 -- -- 79
2019-04-06 20:00:00 10.1 20 Noroeste 32 Noroeste 0.2 -- -- 68
2019-04-06 19:00:00 9.4 23 Noroeste 37 Noroeste 0 -- -- 74
2019-04-06 18:00:00 11.1 20 Norte 39 Noroeste 0.2 -- -- 70
2019-04-06 17:00:00 9.8 28 Noroeste 48 Noroeste 0 -- -- 70
2019-04-06 16:00:00 8.4 21 Noroeste 50 Noroeste 2.2 -- -- 83
2019-04-06 15:00:00 8.9 8 Norte 45 Noroeste 0.2 -- -- 77
2019-04-06 14:00:00 12.6 18 Noroeste 36 Noroeste 0 -- -- 65
2019-04-06 13:00:00 10.8 22 Noroeste 36 Noroeste 0 -- -- 74
2019-04-06 12:00:00 8.1 18 Noroeste 43 Noroeste 0.2 -- -- 87
2019-04-06 11:00:00 8.2 19 Noroeste 34 Noroeste 0.2 -- -- 85
2019-04-06 10:00:00 8.2 20 Noroeste 36 Noroeste 0 -- -- 85
2019-04-06 09:00:00 7.3 18 Noroeste 33 Oeste 0 -- -- 91
2019-04-06 08:00:00 7 18 Noroeste 36 Noroeste 0.2 -- -- 92
2019-04-06 07:00:00 7.1 17 Noroeste 36 Oeste 0 -- -- 91
2019-04-06 06:00:00 6.9 17 Noroeste 34 Noroeste 0 -- -- 89
2019-04-06 05:00:00 7.1 16 Noroeste 32 Oeste 0 -- -- 90
2019-04-06 04:00:00 6.8 17 Noroeste 32 Oeste 0 -- -- 89
2019-04-06 03:00:00 7.2 15 Noroeste 33 Noroeste 0 -- -- 88
2019-04-06 02:00:00 7.1 17 Noroeste 38 Noroeste 0 -- -- 85
2019-04-06 01:00:00 7.4 18 Noroeste 35 Noroeste 0 -- -- 85
2019-04-06 00:00:00 7.1 19 Noroeste 32 Oeste 0 -- -- 85
2019-04-05 23:00:00 7.5 18 Oeste 32 Oeste 0 -- -- 86
2019-04-05 22:00:00 7.7 15 Oeste 30 Noroeste 0 -- -- 82
2019-04-05 21:00:00 8 19 Noroeste 40 Oeste 0 -- -- 76
2019-04-05 20:00:00 8.7 29 Oeste 50 Noroeste 0 -- -- 71
2019-04-05 19:00:00 9.4 13 Noroeste 42 Oeste 0.4 -- -- 75
2019-04-05 18:00:00 12.1 25 Noroeste 42 Oeste 0 -- -- 56
2019-04-05 17:00:00 11.1 24 Oeste 44 Noroeste 0 -- -- 62
2019-04-05 16:00:00 7.7 23 Noroeste 54 Noroeste 1.8 -- -- 83
2019-04-05 15:00:00 10.1 19 Noroeste 35 Noroeste 0 -- -- 64
2019-04-05 14:00:00 8.6 17 Noroeste 36 Noroeste 0 -- -- 78
2019-04-05 13:00:00 8.7 21 Noroeste 38 Noroeste 0 -- -- 80
2019-04-05 12:00:00 6.9 15 Noroeste 40 Noroeste 1.6 -- -- 91
2019-04-05 11:00:00 7.4 15 Oeste 30 Oeste 1.4 -- -- 86
2019-04-05 10:00:00 8.6 12 Sudoeste 21 Sudoeste 0 -- -- 88
2019-04-05 09:00:00 8.4 12 Sudoeste 27 Oeste 0.4 -- -- 84
2019-04-05 08:00:00 8.2 14 Sudoeste 27 Sudoeste 0.6 -- -- 89
2019-04-05 07:00:00 7.9 17 Sudoeste 30 Sudoeste 0 -- -- 89
2019-04-05 06:00:00 7.6 13 Sudoeste 25 Sudoeste 1 -- -- 89
2019-04-05 05:00:00 7.9 8 Sudoeste 23 Oeste 1.6 -- -- 86
2019-04-05 04:00:00 8.1 7 Noroeste 23 Oeste 0.2 -- -- 89
2019-04-05 03:00:00 8.1 6 Noroeste 17 Noroeste 0.6 -- -- 91
2019-04-05 02:00:00 8.5 11 Noroeste 22 Noroeste 0.2 -- -- 85
2019-04-05 01:00:00 10 13 Norte 34 Oeste 0 -- -- 71
2019-04-05 00:00:00 12.4 20 Noroeste 32 Noroeste 0 -- -- 50
2019-04-04 23:00:00 12.9 13 Noroeste 29 Noroeste 0 -- -- 45
2019-04-04 22:00:00 13.2 12 Noroeste 25 Noroeste 0 -- -- 40
2019-04-04 21:00:00 13.7 18 Noroeste 28 Oeste 0 -- -- 35
2019-04-04 20:00:00 15.3 19 Noroeste 30 Oeste 0 -- -- 29
2019-04-04 19:00:00 16.9 15 Noroeste 30 Noroeste 0 -- -- 28
2019-04-04 18:00:00 17.1 17 Noroeste 30 Noroeste 0 -- -- 28
2019-04-04 17:00:00 17 5 Oeste 26 Noroeste 0 -- -- 33
2019-04-04 16:00:00 16.4 12 Oeste 24 Noroeste 0 -- -- 32
2019-04-04 15:00:00 16 4 Sur 17 Sur 0 -- -- 36
2019-04-04 14:00:00 15 7 Norte 19 Nordeste 0 -- -- 36
2019-04-04 13:00:00 14 4 Este 14 Sudeste 0 -- -- 38
2019-04-04 12:00:00 12.5 7 Sudoeste 19 Sudeste 0 -- -- 44
2019-04-04 11:00:00 9.7 3 Nordeste 8 Nordeste 0 -- -- 62
2019-04-04 10:00:00 6.4 3 Norte 6 Noroeste 0 -- -- 69
2019-04-04 09:00:00 4.1 0 Calma 3 Sudoeste 0 -- -- 82
2019-04-04 08:00:00 2.1 2 Sur 4 Sudoeste 0 -- -- 81
2019-04-04 07:00:00 3.2 2 Sudeste 5 Este 0 -- -- 74
2019-04-04 06:00:00 4.9 3 Nordeste 8 Noroeste 0 -- -- 68
2019-04-04 05:00:00 6.8 6 Oeste 13 Noroeste 0 -- -- 54
2019-04-04 04:00:00 6.8 9 Noroeste 21 Oeste 0 -- -- 56
2019-04-04 03:00:00 7.2 12 Noroeste 19 Noroeste 0 -- -- 57
2019-04-04 02:00:00 8.6 13 Noroeste 21 Noroeste 0 -- -- 52
2019-04-04 01:00:00 8.8 9 Noroeste 15 Noroeste 0 -- -- 51
2019-04-04 00:00:00 9.4 8 Noroeste 17 Norte 0 -- -- 49
2019-04-03 23:00:00 10.5 9 Noroeste 23 Norte 0 -- -- 48
2019-04-03 22:00:00 11.7 12 Norte 29 Norte 0 -- -- 44
2019-04-03 21:00:00 13.4 19 Norte 35 Norte 0 -- -- 40
2019-04-03 20:00:00 15.8 25 Norte 42 Norte 0 -- -- 34
2019-04-03 19:00:00 17.7 23 Norte 40 Noroeste 0 -- -- 32
2019-04-03 18:00:00 18.6 20 Noroeste 38 Noroeste 0 -- -- 40
2019-04-03 17:00:00 18.6 19 Noroeste 43 Norte 0 -- -- 42
2019-04-03 16:00:00 18.1 22 Noroeste 37 Noroeste 0 -- -- 42
2019-04-03 15:00:00 16.9 18 Noroeste 40 Noroeste 0 -- -- 50
2019-04-03 14:00:00 15.7 18 Noroeste 32 Oeste 0 -- -- 55
2019-04-03 13:00:00 14.4 12 Noroeste 22 Noroeste 0 -- -- 63
2019-04-03 12:00:00 12.3 13 Noroeste 25 Oeste 0 -- -- 74
2019-04-03 11:00:00 10.5 17 Noroeste 26 Noroeste 0 -- -- 80
2019-04-03 10:00:00 9.7 14 Noroeste 24 Noroeste 0 -- -- 86
2019-04-03 09:00:00 8.8 14 Noroeste 22 Noroeste 0 -- -- 91
2019-04-03 08:00:00 8.8 15 Noroeste 31 Oeste 0 -- -- 90
2019-04-03 07:00:00 9.7 15 Noroeste 25 Noroeste 0 -- -- 87
2019-04-03 06:00:00 10.7 12 Oeste 21 Noroeste 0 -- -- 80
2019-04-03 05:00:00 11 12 Noroeste 21 Noroeste 0 -- -- 76
2019-04-03 04:00:00 12.1 12 Noroeste 21 Noroeste 0 -- -- 69
2019-04-03 03:00:00 12.9 13 Noroeste 25 Noroeste 0 -- -- 66
2019-04-03 02:00:00 13.7 15 Noroeste 24 Oeste 0 -- -- 65
2019-04-03 01:00:00 14.4 12 Noroeste 23 Oeste 0 -- -- 63
2019-04-03 00:00:00 15.1 15 Noroeste 23 Oeste 0 -- -- 60
2019-04-02 23:00:00 16.6 16 Oeste 27 Noroeste 0 -- -- 54
2019-04-02 22:00:00 16.8 13 Oeste 21 Oeste 0 -- -- 54
2019-04-02 21:00:00 17 9 Oeste 26 Oeste 0 -- -- 56
2019-04-02 20:00:00 19.4 14 Noroeste 26 Noroeste 0 -- -- 47
2019-04-02 19:00:00 18.9 8 Noroeste 22 Oeste 0 -- -- 49
2019-04-02 18:00:00 19.9 9 Oeste 25 Oeste 0 -- -- 47
2019-04-02 17:00:00 20 10 Noroeste 23 Oeste 0 -- -- 49
2019-04-02 16:00:00 19.4 10 Noroeste 24 Noroeste 0 -- -- 53
2019-04-02 15:00:00 18.5 9 Noroeste 18 Noroeste 0 -- -- 56
2019-04-02 14:00:00 16.6 9 Noroeste 16 Norte 0 -- -- 66
2019-04-02 13:00:00 14.8 8 Norte 16 Noroeste 0 -- -- 80
2019-04-02 12:00:00 13.2 5 Norte 12 Noroeste 0 -- -- 88
2019-04-02 11:00:00 11.5 3 Sudeste 5 Sudeste 0 -- -- 98
2019-04-02 10:00:00 9.6 2 Nordeste 4 Norte 0 -- -- 98
2019-04-02 09:00:00 8.5 3 Norte 5 Norte 0 -- -- 97
2019-04-02 08:00:00 8.9 2 Sudeste 4 Sudeste 0 -- -- 96
2019-04-02 07:00:00 8.6 5 Sudoeste 9 Sur 0 -- -- 96
2019-04-02 06:00:00 9 0 Calma 6 Nordeste 0 -- -- 95
2019-04-02 05:00:00 9.8 0 Calma 6 Nordeste 0 -- -- 92
2019-04-02 04:00:00 11.4 3 Norte 6 Noroeste 0 -- -- 88
2019-04-02 03:00:00 11.9 4 Oeste 7 Oeste 0 -- -- 89
2019-04-02 02:00:00 12.1 4 Oeste 10 Noroeste 0 -- -- 86
2019-04-02 01:00:00 12.2 4 Noroeste 7 Noroeste 0 -- -- 88
2019-04-02 00:00:00 12.5 3 Noroeste 14 Noroeste 0 -- -- 86
2019-04-01 23:00:00 12.9 6 Noroeste 19 Noroeste 0 -- -- 82
2019-04-01 22:00:00 13.6 8 Noroeste 13 Noroeste 0 -- -- 86
2019-04-01 21:00:00 13.7 5 Este 12 Sur 0 -- -- 83
2019-04-01 20:00:00 14.6 6 Sudeste 9 Sudeste 0 -- -- 86
2019-04-01 19:00:00 14.4 0 Calma 17 Oeste 0 -- -- 83
2019-04-01 18:00:00 13 14 Oeste 39 Sudoeste 6.2 -- -- 80
2019-04-01 17:00:00 17.4 6 Sur 12 Sudeste 0 -- -- 59
2019-04-01 16:00:00 18.3 6 Sudeste 14 Sur 0 -- -- 59
2019-04-01 15:00:00 16.3 3 Nordeste 15 Nordeste 0 -- -- 72
2019-04-01 14:00:00 15.7 3 Noroeste 10 Nordeste 0 -- -- 75
2019-04-01 13:00:00 14.4 5 Este 11 Este 0.8 -- -- 87
2019-04-01 12:00:00 12.9 4 Sudoeste 6 Sur 0.2 -- -- 87
2019-04-01 11:00:00 12.8 3 Sudeste 6 Este 0 -- -- 85
2019-04-01 10:00:00 11.9 3 Este 6 Sudeste 0 -- -- 90
2019-04-01 09:00:00 11 3 Sudeste 6 Sur 0 -- -- 93
2019-04-01 08:00:00 10.8 4 Sur 5 Sur 0 -- -- 93
2019-04-01 07:00:00 11 3 Sur 6 Sur 0.2 -- -- 92
2019-04-01 06:00:00 11.1 4 Sur 9 Sudeste 0.2 -- -- 91
2019-04-01 05:00:00 11.2 5 Sudeste 12 Sur 0 -- -- 89
2019-04-01 04:00:00 11.4 7 Sudeste 11 Sur 0 -- -- 87
2019-04-01 03:00:00 11.3 3 Sur 7 Sur 0 -- -- 90
2019-04-01 02:00:00 11.6 5 Sur 10 Sur 0 -- -- 88
2019-04-01 01:00:00 11.8 6 Sur 14 Sudeste 0 -- -- 89
2019-04-01 00:00:00 12.4 10 Sudeste 15 Sudeste 0 -- -- 92
2019-03-31 23:00:00 12.7 9 Sur 12 Sur 0.8 -- -- 90
2019-03-31 22:00:00 12.2 4 Sudoeste 21 Nordeste 4.8 -- -- 93
2019-03-31 21:00:00 13 18 Nordeste 29 Nordeste 1.8 -- -- 87
2019-03-31 20:00:00 16.7 12 Sur 21 Sur 0 -- -- 62
2019-03-31 19:00:00 17.8 13 Noroeste 19 Noroeste 0 -- -- 56
2019-03-31 18:00:00 19.1 6 Oeste 21 Oeste 0 -- -- 47
2019-03-31 17:00:00 18.9 6 Norte 19 Nordeste 0 -- -- 47
2019-03-31 16:00:00 18.3 14 Nordeste 28 Nordeste 0 -- -- 50
2019-03-31 15:00:00 20.1 8 Sudeste 15 Este 0 -- -- 49
2019-03-31 14:00:00 19.8 7 Este 18 Sudeste 0 -- -- 52
2019-03-31 13:00:00 18.9 6 Sudeste 18 Sudeste 0 -- -- 56
2019-03-31 12:00:00 17.5 6 Sur 17 Este 0 -- -- 62
2019-03-31 11:00:00 15.5 6 Este 13 Sudeste 0 -- -- 70
2019-03-31 10:00:00 13.1 4 Sudeste 15 Sur 0 -- -- 81
2019-03-31 09:00:00 11.2 11 Sur 14 Sur 0 -- -- 86
2019-03-31 08:00:00 9.6 4 Sur 9 Sudeste 0 -- -- 84
2019-03-31 07:00:00 10.3 2 Sudoeste 10 Norte 0 -- -- 86
2019-03-31 06:00:00 10.9 3 Sudeste 6 Sudoeste 0 -- -- 84
2019-03-31 05:00:00 11.7 2 Sur 9 Sudeste 0 -- -- 80
2019-03-31 03:00:00 12.8 9 Sur 17 Sur 0 -- -- 69
2019-03-31 01:00:00 13.3 10 Sur 13 Sur 0 -- -- 70
2019-03-31 00:00:00 15.7 5 Noroeste 10 Oeste 0 -- -- 58
2019-03-30 23:00:00 15.6 5 Noroeste 19 Sur 0 -- -- 54
2019-03-30 22:00:00 15 9 Sur 41 Sudeste 0 -- -- 56
2019-03-30 21:00:00 16.9 25 Sudeste 39 Sudeste 0 -- -- 51
2019-03-30 20:00:00 17.5 6 Este 14 Nordeste 0 -- -- 41
2019-03-30 19:00:00 21.1 7 Este 16 Sudeste 0 -- -- 36
2019-03-30 18:00:00 22.6 9 Sur 17 Sur 0 -- -- 32
2019-03-30 17:00:00 22.3 11 Sudeste 25 Sudeste 0 -- -- 32
2019-03-30 16:00:00 22.4 12 Este 31 Este 0 -- -- 32
2019-03-30 15:00:00 21.5 16 Sudeste 29 Sudeste 0 -- -- 34
2019-03-30 14:00:00 20.5 13 Sudeste 27 Este 0 -- -- 35
2019-03-30 13:00:00 19.3 13 Este 25 Este 0 -- -- 38
2019-03-30 12:00:00 17.8 12 Este 28 Este 0 -- -- 43
2019-03-30 11:00:00 16.1 11 Este 20 Este 0 -- -- 46
2019-03-30 10:00:00 13 6 Este 9 Este 0 -- -- 53
2019-03-30 09:00:00 10.1 5 Este 6 Este 0 -- -- 59
2019-03-30 08:00:00 8.5 5 Este 8 Este 0 -- -- 61
2019-03-30 07:00:00 7.5 3 Sur 10 Sudeste 0 -- -- 65
2019-03-30 06:00:00 6.1 8 Sudeste 10 Sudeste 0 -- -- 66
2019-03-30 05:00:00 7.3 5 Sur 9 Sur 0 -- -- 61
2019-03-30 04:00:00 6.9 7 Sudeste 12 Este 0 -- -- 63
2019-03-30 03:00:00 8.9 6 Sur 14 Sudoeste 0 -- -- 53
2019-03-30 02:00:00 8.6 8 Sur 10 Sur 0 -- -- 53
2019-03-30 01:00:00 9.8 8 Sur 12 Sur 0 -- -- 46
2019-03-30 00:00:00 9.3 6 Sur 11 Sur 0 -- -- 47
2019-03-29 23:00:00 11.2 5 Sur 8 Sur 0 -- -- 39
2019-03-29 22:00:00 10.6 4 Sur 7 Sur 0 -- -- 42
2019-03-29 21:00:00 12.2 3 Sudeste 7 Sudeste 0 -- -- 39
2019-03-29 20:00:00 16.4 2 Sudeste 6 Este 0 -- -- 32
2019-03-29 19:00:00 19.2 4 Este 14 Sudeste 0 -- -- 26
2019-03-29 18:00:00 20.5 7 Este 16 Sudeste 0 -- -- 22
2019-03-29 17:00:00 21 5 Sur 17 Sudeste 0 -- -- 21
2019-03-29 16:00:00 20.8 5 Sudeste 22 Este 0 -- -- 21
2019-03-29 15:00:00 20.1 5 Sur 21 Sudeste 0 -- -- 22
2019-03-29 14:00:00 19.9 7 Sur 22 Sudeste 0 -- -- 23
2019-03-29 13:00:00 18.7 8 Sudeste 20 Sudeste 0 -- -- 26
2019-03-29 12:00:00 17.6 9 Sudeste 26 Este 0 -- -- 28
2019-03-29 11:00:00 16 11 Sudeste 26 Sudeste 0 -- -- 31
2019-03-29 10:00:00 13 9 Sudeste 21 Sur 0 -- -- 39
2019-03-29 09:00:00 11 10 Sur 15 Sudeste 0 -- -- 43
2019-03-29 08:00:00 6.7 7 Sur 13 Sur 0 -- -- 56
2019-03-29 07:00:00 5.2 6 Sur 10 Sur 0 -- -- 59
2019-03-29 06:00:00 5.5 10 Sur 12 Sur 0 -- -- 60
2019-03-29 05:00:00 6.1 9 Sur 11 Sur 0 -- -- 58
2019-03-29 04:00:00 7 3 Sur 8 Sur 0 -- -- 55
2019-03-29 03:00:00 9.1 4 Sur 14 Sudeste 0 -- -- 47
2019-03-29 02:00:00 9.5 9 Sudeste 14 Sur 0 -- -- 46
2019-03-29 01:00:00 9 8 Sur 13 Sudeste 0 -- -- 48
2019-03-29 00:00:00 9.5 2 Sur 9 Este 0 -- -- 47
2019-03-28 23:00:00 10.6 7 Sudeste 14 Sur 0 -- -- 45
2019-03-28 22:00:00 13.1 12 Sur 18 Sudeste 0 -- -- 36
2019-03-28 21:00:00 13.2 9 Sudeste 11 Sudeste 0 -- -- 36
2019-03-28 20:00:00 16.5 6 Sudeste 20 Sudeste 0 -- -- 28
2019-03-28 19:00:00 19.9 12 Sudeste 27 Sudeste 0 -- -- 24
2019-03-28 18:00:00 21.6 18 Sudeste 34 Sudeste 0 -- -- 21
2019-03-28 17:00:00 21.9 18 Sudeste 34 Sudeste 0 -- -- 20
2019-03-28 16:00:00 21.9 14 Sudeste 39 Sudeste 0 -- -- 20
2019-03-28 15:00:00 21.4 18 Sudeste 35 Sudeste 0 -- -- 19
2019-03-28 14:00:00 20.5 23 Sudeste 40 Sudeste 0 -- -- 16
2019-03-28 13:00:00 19.5 20 Sudeste 39 Sudeste 0 -- -- 19
2019-03-28 12:00:00 18.3 19 Sudeste 38 Sudeste 0 -- -- 24
2019-03-28 11:00:00 16.4 15 Sudeste 25 Sudeste 0 -- -- 32
2019-03-28 10:00:00 13.9 13 Sudeste 25 Sudeste 0 -- -- 38
2019-03-28 09:00:00 10.8 8 Sudeste 16 Sudeste 0 -- -- 49
2019-03-28 08:00:00 7 3 Sur 9 Sur 0 -- -- 56
2019-03-28 07:00:00 5.4 3 Sur 11 Sur 0 -- -- 62
2019-03-28 06:00:00 4.8 8 Sur 10 Sur 0 -- -- 65
2019-03-28 05:00:00 5.5 5 Sur 9 Sur 0 -- -- 59
2019-03-28 04:00:00 7.5 6 Sudoeste 13 Sudeste 0 -- -- 50
2019-03-28 03:00:00 7.5 6 Sur 9 Sur 0 -- -- 49
2019-03-28 02:00:00 7 6 Sur 8 Sur 0 -- -- 49
2019-03-28 01:00:00 8 0 Calma 8 Sur 0 -- -- 46
2019-03-28 00:00:00 9.5 4 Sur 12 Sudeste 0 -- -- 41
2019-03-27 23:00:00 9.5 4 Sur 11 Sur 0 -- -- 42
2019-03-27 22:00:00 11.4 8 Sur 17 Sur 0 -- -- 36
2019-03-27 21:00:00 12.4 12 Sur 17 Sudeste 0 -- -- 36
2019-03-27 20:00:00 16.3 13 Sudeste 23 Sudeste 0 -- -- 27
2019-03-27 19:00:00 19.4 14 Sudeste 31 Sudeste 0 -- -- 23
2019-03-27 18:00:00 20.9 16 Sudeste 31 Este 0 -- -- 23
2019-03-27 17:00:00 21.4 21 Sudeste 37 Sudeste 0 -- -- 25
2019-03-27 16:00:00 21.1 24 Sudeste 37 Sudeste 0 -- -- 23
2019-03-27 15:00:00 21 24 Este 36 Este 0 -- -- 24
2019-03-27 14:00:00 20.3 16 Sudeste 31 Este 0 -- -- 26
2019-03-27 13:00:00 18.5 12 Sudeste 30 Sudeste 0 -- -- 31
2019-03-27 12:00:00 16.2 14 Sudeste 31 Sudeste 0 -- -- 34
2019-03-27 11:00:00 14.8 17 Sudeste 34 Sudeste 0 -- -- 37
2019-03-27 10:00:00 13.2 21 Sudeste 31 Sudeste 0 -- -- 42
2019-03-27 09:00:00 11.2 8 Sudeste 14 Sudeste 0 -- -- 54
2019-03-27 08:00:00 7.5 8 Sur 13 Sur 0 -- -- 70
2019-03-27 07:00:00 6.7 7 Sudeste 15 Sur 0 -- -- 68
2019-03-27 06:00:00 8.3 9 Sur 17 Sudeste 0 -- -- 66
2019-03-27 05:00:00 8.3 6 Sudeste 15 Este 0 -- -- 62
2019-03-27 04:00:00 9.4 5 Sur 10 Sudeste 0 -- -- 58
2019-03-27 03:00:00 8.8 3 Sur 12 Sudeste 0 -- -- 62
2019-03-27 02:00:00 10.8 5 Este 16 Este 0 -- -- 56
2019-03-27 01:00:00 12.4 13 Este 17 Sudeste 0 -- -- 54
2019-03-27 00:00:00 13.2 9 Sur 22 Sudeste 0 -- -- 52
2019-03-26 23:00:00 16.6 17 Sudeste 35 Sudeste 0 -- -- 41
2019-03-26 22:00:00 17.4 17 Sur 30 Sur 0 -- -- 37
2019-03-26 21:00:00 17.7 8 Sudeste 31 Este 0 -- -- 37
2019-03-26 20:00:00 19 15 Sudeste 31 Sudeste 0 -- -- 33
2019-03-26 19:00:00 22.2 23 Este 40 Sudeste 0 -- -- 26
2019-03-26 18:00:00 23.8 26 Sudeste 42 Sudeste 0 -- -- 24
2019-03-26 17:00:00 24.9 23 Sudeste 39 Sudeste 0 -- -- 23
2019-03-26 16:00:00 25.3 24 Sudeste 43 Este 0 -- -- 24
2019-03-26 15:00:00 25 25 Sudeste 44 Este 0 -- -- 24
2019-03-26 14:00:00 24.2 30 Este 45 Este 0 -- -- 25
2019-03-26 13:00:00 22.9 27 Sudeste 41 Sudeste 0 -- -- 27
2019-03-26 12:00:00 20.5 26 Este 40 Sudeste 0 -- -- 30
2019-03-26 11:00:00 18.1 21 Sudeste 32 Sudeste 0 -- -- 34
2019-03-26 10:00:00 16 15 Sudeste 26 Sudeste 0 -- -- 37
2019-03-26 09:00:00 14 8 Sudeste 15 Sudeste 0 -- -- 40
2019-03-26 08:00:00 9.1 9 Sur 13 Sur 0 -- -- 53
2019-03-26 07:00:00 8.8 9 Sur 14 Sur 0 -- -- 50
2019-03-26 06:00:00 9.8 9 Sur 23 Sudeste 0 -- -- 45
2019-03-26 05:00:00 11.1 9 Sur 16 Sudeste 0 -- -- 42
2019-03-26 04:00:00 10.6 6 Sudeste 14 Sudeste 0 -- -- 46
2019-03-26 03:00:00 10.4 9 Sur 15 Sur 0 -- -- 49
2019-03-26 02:00:00 11.2 7 Sur 14 Sur 0 -- -- 47
2019-03-26 01:00:00 10.8 8 Sur 10 Sur 0 -- -- 49
2019-03-26 00:00:00 11.4 7 Sur 11 Sur 0 -- -- 49
2019-03-25 23:00:00 13.1 5 Sudeste 12 Sur 0 -- -- 43
2019-03-25 22:00:00 13.2 9 Sur 15 Sur 0 -- -- 44
2019-03-25 21:00:00 14.9 6 Sudeste 10 Sudeste 0 -- -- 40
2019-03-25 20:00:00 17.7 6 Sudeste 23 Este 0 -- -- 34
2019-03-25 19:00:00 21.9 17 Este 32 Este 0 -- -- 26
2019-03-25 18:00:00 23.7 15 Sudeste 32 Sudeste 0 -- -- 22
2019-03-25 17:00:00 24.2 18 Sudeste 34 Sudeste 0 -- -- 22
2019-03-25 16:00:00 24.5 17 Sudeste 31 Sudeste 0 -- -- 21
2019-03-25 15:00:00 24 20 Sudeste 37 Sudeste 0 -- -- 23
2019-03-25 14:00:00 23.3 20 Sudeste 37 Este 0 -- -- 24
2019-03-25 13:00:00 22.4 17 Sudeste 32 Sudeste 0 -- -- 25
2019-03-25 12:00:00 20.9 21 Este 33 Este 0 -- -- 33
2019-03-25 11:00:00 19.1 17 Sudeste 26 Sudeste 0 -- -- 37
2019-03-25 10:00:00 16.7 12 Sudeste 19 Sudeste 0 -- -- 45
2019-03-25 09:00:00 13.4 10 Sur 17 Sur 0 -- -- 57
2019-03-25 08:00:00 7.5 10 Sur 13 Sur 0 -- -- 80
2019-03-25 07:00:00 7 6 Sur 13 Sur 0 -- -- 78
2019-03-25 06:00:00 7.6 8 Sur 10 Sur 0 -- -- 76
2019-03-25 05:00:00 7.7 8 Sur 12 Sur 0 -- -- 78
2019-03-25 04:00:00 7.8 9 Sur 10 Sur 0 -- -- 78
2019-03-25 03:00:00 6.9 4 Sur 9 Sur 0 -- -- 82
2019-03-25 02:00:00 8.7 2 Este 6 Sudoeste 0 -- -- 77
2019-03-25 01:00:00 8.7 5 Sur 8 Este 0 -- -- 78
2019-03-25 00:00:00 10 3 Sudeste 12 Sudoeste 0 -- -- 72